Time;durP1;ratioP1;P1;durP2;ratioP2;P2;SDS_P1;SDS_P2;PMS_P1;PMS_P2;Temp;Humidity;BMP_temperature;BMP_pressure;BME280_temperature;BME280_humidity;BME280_pressure;Samples;Min_cycle;Max_cycle;Signal;HPM_P1;HPM_P2
2021/11/21 00:00:23;;;;;;;25.77;13.13;;;7.40;99.90;;;;;;4164798;28;20852;-78
2021/11/21 00:02:25;;;;;;;24.40;12.53;;;7.40;99.90;;;;;;4165760;28;20539;-78
2021/11/21 00:04:27;;;;;;;26.73;13.13;;;7.40;99.90;;;;;;4163679;28;20499;-79
2021/11/21 00:06:29;;;;;;;27.53;12.63;;;7.30;99.90;;;;;;4163455;28;20496;-77
2021/11/21 00:08:31;;;;;;;24.63;12.77;;;7.30;99.90;;;;;;4164983;28;20547;-78
2021/11/21 00:10:34;;;;;;;27.27;13.20;;;7.30;99.90;;;;;;4162227;28;20483;-79
2021/11/21 00:12:36;;;;;;;23.87;12.53;;;7.30;99.90;;;;;;4161954;28;20469;-78
2021/11/21 00:14:38;;;;;;;28.40;14.80;;;7.30;99.90;;;;;;4166118;28;20462;-79
2021/11/21 00:16:40;;;;;;;24.80;13.47;;;7.30;99.90;;;;;;4155228;28;20467;-78
2021/11/21 00:18:42;;;;;;;25.73;12.60;;;7.30;99.90;;;;;;4160570;28;20513;-79
2021/11/21 00:20:45;;;;;;;27.37;13.83;;;7.20;99.90;;;;;;4164724;28;20546;-78
2021/11/21 00:22:48;;;;;;;27.00;13.80;;;7.20;99.90;;;;;;4160813;28;21122;-79
2021/11/21 00:24:49;;;;;;;25.27;13.30;;;7.20;99.90;;;;;;4159748;28;20507;-78
2021/11/21 00:26:53;;;;;;;26.00;13.73;;;7.20;99.90;;;;;;4166075;28;20916;-78
2021/11/21 00:28:55;;;;;;;28.37;14.70;;;7.20;99.90;;;;;;4166137;28;20483;-78
2021/11/21 00:30:57;;;;;;;27.33;14.07;;;7.20;99.90;;;;;;4162483;28;20518;-79
2021/11/21 00:32:59;;;;;;;25.87;13.83;;;7.20;99.90;;;;;;4156442;28;20469;-77
2021/11/21 00:35:01;;;;;;;27.33;14.60;;;7.10;99.90;;;;;;4158983;28;20484;-79
2021/11/21 00:37:04;;;;;;;27.47;13.63;;;7.10;99.90;;;;;;4166322;28;20537;-78
2021/11/21 00:39:06;;;;;;;25.37;13.30;;;7.10;99.90;;;;;;4164540;28;20540;-78
2021/11/21 00:41:09;;;;;;;26.13;14.10;;;7.10;99.90;;;;;;4163739;28;20495;-78
2021/11/21 00:43:12;;;;;;;29.27;14.67;;;7.10;99.90;;;;;;4157179;28;20992;-78
2021/11/21 00:45:14;;;;;;;26.50;13.77;;;7.10;99.90;;;;;;4152353;28;20847;-75
2021/11/21 00:47:16;;;;;;;26.70;13.50;;;7.10;99.90;;;;;;4153309;28;20488;-76
2021/11/21 00:49:19;;;;;;;28.27;14.30;;;7.20;99.90;;;;;;4160309;28;20484;-75
2021/11/21 00:51:21;;;;;;;28.37;14.43;;;7.20;99.90;;;;;;4158986;28;20500;-75
2021/11/21 00:53:23;;;;;;;28.00;14.83;;;7.20;99.90;;;;;;4153497;28;20502;-77
2021/11/21 00:55:33;;;;;;;29.83;14.23;;;7.20;99.90;;;;;;4163333;28;20496;-76
2021/11/21 00:57:35;;;;;;;27.07;13.87;;;7.20;99.90;;;;;;4161223;28;20453;-79
2021/11/21 00:59:38;;;;;;;26.70;13.67;;;7.20;99.90;;;;;;4160857;28;20790;-75
2021/11/21 01:01:40;;;;;;;28.07;13.77;;;7.10;99.90;;;;;;4163346;28;20859;-76
2021/11/21 01:03:43;;;;;;;26.33;13.10;;;7.20;99.90;;;;;;4162474;28;20471;-75
2021/11/21 01:05:46;;;;;;;25.77;13.20;;;7.20;99.90;;;;;;4162587;28;20459;-79
2021/11/21 01:07:48;;;;;;;27.20;13.40;;;7.20;99.90;;;;;;4154820;28;20528;-78
2021/11/21 01:09:50;;;;;;;27.93;14.27;;;7.20;99.90;;;;;;4158197;28;20491;-79
2021/11/21 01:11:52;;;;;;;26.80;13.07;;;7.20;99.90;;;;;;4164309;28;20469;-78
2021/11/21 01:13:54;;;;;;;24.43;13.33;;;7.20;99.90;;;;;;4165745;28;20487;-78
2021/11/21 01:15:57;;;;;;;27.73;14.27;;;7.20;99.90;;;;;;4166027;28;20568;-78
2021/11/21 01:18:00;;;;;;;25.33;13.17;;;7.20;99.90;;;;;;4165243;28;20503;-79
2021/11/21 01:20:02;;;;;;;28.77;15.07;;;7.20;99.90;;;;;;4159713;28;21087;-77
2021/11/21 01:22:05;;;;;;;27.50;14.30;;;7.20;99.90;;;;;;4167384;28;20454;-79
2021/11/21 01:24:07;;;;;;;27.30;13.63;;;7.10;99.90;;;;;;4153159;28;20471;-77
2021/11/21 01:26:09;;;;;;;27.23;14.30;;;7.10;99.90;;;;;;4166285;28;20557;-80
2021/11/21 01:28:11;;;;;;;27.33;13.60;;;7.10;99.90;;;;;;4162791;28;20823;-79
2021/11/21 01:30:16;;;;;;;25.17;13.20;;;7.10;99.90;;;;;;4161002;28;20574;-77
2021/11/21 01:32:19;;;;;;;28.37;14.53;;;7.10;99.90;;;;;;4161294;28;20989;-78
2021/11/21 01:34:21;;;;;;;27.37;13.43;;;7.10;99.90;;;;;;4156693;28;21023;-78
2021/11/21 01:36:23;;;;;;;27.90;13.70;;;7.10;99.90;;;;;;4160422;28;20543;-78
2021/11/21 01:38:25;;;;;;;27.20;13.97;;;7.00;99.90;;;;;;4163852;28;20954;-79
2021/11/21 01:40:28;;;;;;;27.53;14.03;;;7.00;99.90;;;;;;4165920;28;20530;-77
2021/11/21 01:42:30;;;;;;;27.57;13.83;;;7.00;99.90;;;;;;4165080;28;21033;-78
2021/11/21 01:44:32;;;;;;;26.70;13.80;;;7.00;99.90;;;;;;4158084;28;20507;-78
2021/11/21 01:46:36;;;;;;;25.87;13.53;;;7.00;99.90;;;;;;4169036;28;20529;-79
2021/11/21 01:48:40;;;;;;;29.43;14.80;;;7.00;99.90;;;;;;4169004;28;20455;-79
2021/11/21 01:50:43;;;;;;;29.03;15.07;;;6.90;99.90;;;;;;4169455;28;20531;-78
2021/11/21 01:52:45;;;;;;;27.50;13.97;;;6.90;99.90;;;;;;4162016;28;20507;-79
2021/11/21 01:54:47;;;;;;;29.00;14.83;;;6.90;99.90;;;;;;4165573;28;20491;-78
2021/11/21 01:56:49;;;;;;;27.77;14.27;;;7.00;99.90;;;;;;4168178;28;20535;-79
2021/11/21 01:58:51;;;;;;;26.30;13.40;;;6.90;99.90;;;;;;4161002;28;20562;-78
2021/11/21 02:00:54;;;;;;;27.00;14.10;;;6.90;99.90;;;;;;4169065;28;21047;-78
2021/11/21 02:02:56;;;;;;;25.70;13.40;;;6.90;99.90;;;;;;4164977;28;20956;-78
2021/11/21 02:04:59;;;;;;;27.23;13.47;;;7.00;99.90;;;;;;4161019;28;20527;-78
2021/11/21 02:07:01;;;;;;;24.87;13.57;;;6.90;99.90;;;;;;4169041;28;20487;-78
2021/11/21 02:09:05;;;;;;;26.83;13.80;;;6.90;99.90;;;;;;4168409;28;20507;-77
2021/11/21 02:11:07;;;;;;;26.63;13.67;;;6.90;99.90;;;;;;4153433;28;20580;-78
2021/11/21 02:13:10;;;;;;;26.77;13.80;;;6.90;99.90;;;;;;4167745;28;20502;-78
2021/11/21 02:15:14;;;;;;;27.40;14.33;;;6.90;99.90;;;;;;4169312;28;20461;-78
2021/11/21 02:17:16;;;;;;;27.57;14.80;;;7.00;99.90;;;;;;4168391;28;21029;-78
2021/11/21 02:19:19;;;;;;;25.97;13.43;;;6.90;99.90;;;;;;4159735;28;20483;-75
2021/11/21 02:21:24;;;;;;;27.27;14.50;;;7.00;99.90;;;;;;4190661;22;20513;-82
2021/11/21 02:23:27;;;;;;;26.47;13.47;;;6.90;99.90;;;;;;4160292;28;20463;-82
2021/11/21 02:25:29;;;;;;;26.27;13.67;;;7.00;99.90;;;;;;4164897;28;20563;-81
2021/11/21 02:27:32;;;;;;;28.87;13.20;;;7.00;99.90;;;;;;4169011;28;20463;-82
2021/11/21 02:29:34;;;;;;;23.53;12.47;;;6.90;99.90;;;;;;4167019;28;20476;-81
2021/11/21 02:31:36;;;;;;;27.37;14.53;;;6.90;99.90;;;;;;4168833;28;20531;-81
2021/11/21 02:33:38;;;;;;;27.40;14.07;;;7.00;99.90;;;;;;4159057;28;20494;-82
2021/11/21 02:35:41;;;;;;;23.80;12.57;;;7.00;99.90;;;;;;4163958;28;20508;-82
2021/11/21 02:37:45;;;;;;;24.00;12.97;;;7.00;99.90;;;;;;4155981;28;20464;-81
2021/11/21 02:39:47;;;;;;;26.10;13.60;;;6.90;99.90;;;;;;4156863;28;20459;-78
2021/11/21 02:41:49;;;;;;;30.63;13.50;;;7.00;99.90;;;;;;4150741;28;20488;-81
2021/11/21 02:43:50;;;;;;;26.70;12.70;;;7.00;99.90;;;;;;4153167;28;20540;-82
2021/11/21 02:45:55;;;;;;;27.00;13.50;;;7.00;99.90;;;;;;4148854;28;20489;-82
2021/11/21 02:47:57;;;;;;;27.30;13.50;;;7.00;99.90;;;;;;4149551;28;20488;-82
2021/11/21 02:49:59;;;;;;;26.03;13.60;;;7.00;99.90;;;;;;4145931;28;20500;-82
2021/11/21 02:52:00;;;;;;;26.17;14.37;;;7.00;99.90;;;;;;4146075;28;20460;-82
2021/11/21 02:54:04;;;;;;;25.97;13.43;;;7.00;99.90;;;;;;4148705;28;20547;-82
2021/11/21 02:56:08;;;;;;;26.93;14.13;;;7.00;99.90;;;;;;4146478;28;20472;-82
2021/11/21 02:58:11;;;;;;;27.30;13.40;;;7.00;99.90;;;;;;4144498;28;20553;-82
2021/11/21 03:00:16;;;;;;;25.77;14.07;;;7.00;99.90;;;;;;4132688;28;20564;-82
2021/11/21 03:02:19;;;;;;;24.10;13.37;;;7.00;99.90;;;;;;4149419;28;20872;-82
2021/11/21 03:04:23;;;;;;;25.73;13.33;;;7.00;99.90;;;;;;4160446;28;20483;-81
2021/11/21 03:06:26;;;;;;;25.90;12.97;;;7.00;99.90;;;;;;4155637;28;20534;-82
2021/11/21 03:08:28;;;;;;;24.77;13.73;;;7.00;99.90;;;;;;4150606;28;20472;-83
2021/11/21 03:10:32;;;;;;;25.73;13.43;;;7.40;99.90;;;;;;4141701;28;20940;-82
2021/11/21 03:12:35;;;;;;;26.10;13.63;;;7.10;99.90;;;;;;4133007;28;20449;-82
2021/11/21 03:14:37;;;;;;;23.87;12.60;;;7.30;99.90;;;;;;4149275;28;20489;-82
2021/11/21 03:16:39;;;;;;;24.80;13.40;;;7.10;99.90;;;;;;4148145;28;20502;-82
2021/11/21 03:18:41;;;;;;;25.30;13.30;;;7.10;99.90;;;;;;4149754;28;20556;-82
2021/11/21 03:20:43;;;;;;;24.80;12.80;;;7.10;99.90;;;;;;4149902;28;20522;-82
2021/11/21 03:22:45;;;;;;;25.63;13.37;;;7.10;99.90;;;;;;4152482;28;20486;-82
2021/11/21 03:24:49;;;;;;;25.77;13.93;;;7.10;99.90;;;;;;4146794;28;20511;-82
2021/11/21 03:26:52;;;;;;;24.50;13.13;;;7.10;99.90;;;;;;4137331;28;20553;-82
2021/11/21 03:28:54;;;;;;;21.60;11.83;;;7.10;99.90;;;;;;4149378;28;20495;-82
2021/11/21 03:30:56;;;;;;;24.97;13.47;;;7.10;99.90;;;;;;4147699;28;20571;-82
2021/11/21 03:32:58;;;;;;;24.27;12.83;;;7.10;99.90;;;;;;4158399;28;20509;-82
2021/11/21 03:35:00;;;;;;;23.10;12.17;;;7.10;99.90;;;;;;4136405;28;20538;-82
2021/11/21 03:37:02;;;;;;;25.37;12.47;;;7.10;99.90;;;;;;4148085;28;20905;-82
2021/11/21 03:39:04;;;;;;;26.47;13.47;;;7.10;99.90;;;;;;4141138;28;20461;-82
2021/11/21 03:41:06;;;;;;;26.67;14.23;;;7.10;99.90;;;;;;4142799;28;20489;-82
2021/11/21 03:43:09;;;;;;;27.50;13.63;;;7.00;99.90;;;;;;4147402;28;20479;-82
2021/11/21 03:45:12;;;;;;;24.73;13.40;;;7.10;99.90;;;;;;4148098;28;20895;-82
2021/11/21 03:47:14;;;;;;;28.57;13.57;;;7.10;99.90;;;;;;4143597;28;20551;-82
2021/11/21 03:49:17;;;;;;;27.33;14.13;;;7.10;99.90;;;;;;4150342;28;20840;-82
2021/11/21 03:51:19;;;;;;;26.50;13.77;;;7.10;99.90;;;;;;4151768;28;20510;-82
2021/11/21 03:53:21;;;;;;;28.33;13.80;;;7.10;99.90;;;;;;4134612;28;20532;-82
2021/11/21 03:55:23;;;;;;;27.50;13.33;;;7.10;99.90;;;;;;4149426;28;21082;-82
2021/11/21 03:57:25;;;;;;;24.53;13.23;;;7.10;99.90;;;;;;4141743;28;21129;-82
2021/11/21 03:59:29;;;;;;;25.87;13.03;;;7.20;99.90;;;;;;4148238;28;20488;-81
2021/11/21 04:01:32;;;;;;;25.83;13.20;;;7.20;99.90;;;;;;4157098;28;20520;-81
2021/11/21 04:03:34;;;;;;;26.03;13.40;;;7.20;99.90;;;;;;4151649;28;20461;-77
2021/11/21 04:05:36;;;;;;;22.63;11.93;;;7.20;99.90;;;;;;4158843;28;20483;-82
2021/11/21 04:07:39;;;;;;;27.23;13.97;;;7.20;99.90;;;;;;4144044;28;20984;-82
2021/11/21 04:09:41;;;;;;;27.33;13.20;;;7.20;99.90;;;;;;4148479;28;21035;-81
2021/11/21 04:11:43;;;;;;;24.00;13.70;;;7.20;99.90;;;;;;4152852;28;20582;-82
2021/11/21 04:13:45;;;;;;;24.17;12.27;;;7.30;99.90;;;;;;4148750;28;20569;-81
2021/11/21 04:15:49;;;;;;;22.97;12.43;;;7.20;99.90;;;;;;4147451;28;20481;-81
2021/11/21 04:17:50;;;;;;;24.90;13.03;;;7.20;99.90;;;;;;4150008;28;20841;-80
2021/11/21 04:19:52;;;;;;;25.27;13.13;;;7.20;99.90;;;;;;4151220;28;20822;-79
2021/11/21 04:21:54;;;;;;;26.60;13.70;;;7.20;99.90;;;;;;4144499;28;21195;-82
2021/11/21 04:23:56;;;;;;;26.47;14.33;;;7.20;99.90;;;;;;4152645;28;20919;-82
2021/11/21 04:25:59;;;;;;;26.23;13.30;;;7.20;99.90;;;;;;4156384;28;20465;-82
2021/11/21 04:28:01;;;;;;;25.47;13.10;;;7.20;99.90;;;;;;4149102;28;21057;-82
2021/11/21 04:30:04;;;;;;;25.13;12.67;;;7.20;99.90;;;;;;4157304;28;20689;-81
2021/11/21 04:32:08;;;;;;;23.37;12.57;;;7.20;99.90;;;;;;4149064;28;20456;-79
2021/11/21 04:34:10;;;;;;;22.67;12.43;;;7.20;99.90;;;;;;4152140;28;20480;-81
2021/11/21 04:36:12;;;;;;;26.17;13.20;;;7.20;99.90;;;;;;4144558;28;20982;-82
2021/11/21 04:38:14;;;;;;;27.53;13.87;;;7.20;99.90;;;;;;4150908;28;20610;-81
2021/11/21 04:40:18;;;;;;;25.10;12.43;;;7.30;99.90;;;;;;4156910;28;20481;-80
2021/11/21 04:42:20;;;;;;;25.83;13.40;;;7.20;99.90;;;;;;4153954;28;20564;-80
2021/11/21 04:44:23;;;;;;;24.97;13.40;;;7.20;99.90;;;;;;4159654;28;20842;-79
2021/11/21 04:46:26;;;;;;;23.73;12.80;;;7.20;99.90;;;;;;4149666;28;20473;-81
2021/11/21 04:48:29;;;;;;;24.80;13.67;;;7.20;99.90;;;;;;4143078;28;20536;-80
2021/11/21 04:50:31;;;;;;;24.50;12.93;;;7.20;99.90;;;;;;4144336;28;20486;-81
2021/11/21 04:52:33;;;;;;;27.07;13.70;;;7.20;99.90;;;;;;4148364;28;20536;-81
2021/11/21 04:54:35;;;;;;;26.20;13.30;;;7.20;99.90;;;;;;4144337;28;20546;-81
2021/11/21 04:56:37;;;;;;;25.93;13.17;;;7.20;99.90;;;;;;4142548;28;20463;-81
2021/11/21 04:58:39;;;;;;;25.20;13.57;;;7.20;99.90;;;;;;4152692;28;20466;-81
2021/11/21 05:00:41;;;;;;;23.93;13.00;;;7.20;99.90;;;;;;4144170;28;20487;-81
2021/11/21 05:02:44;;;;;;;27.33;13.40;;;7.30;99.90;;;;;;4153240;28;20898;-81
2021/11/21 05:04:47;;;;;;;23.87;12.87;;;7.20;99.90;;;;;;4148268;28;20465;-81
2021/11/21 05:06:49;;;;;;;27.00;13.13;;;7.30;99.90;;;;;;4158416;28;20555;-81
2021/11/21 05:08:51;;;;;;;24.67;13.20;;;7.60;99.90;;;;;;4147477;28;20505;-81
2021/11/21 05:10:53;;;;;;;25.83;12.90;;;7.30;99.90;;;;;;4158861;28;20494;-81
2021/11/21 05:12:55;;;;;;;25.53;12.77;;;7.30;99.90;;;;;;4167174;28;20949;-81
2021/11/21 05:14:59;;;;;;;24.47;12.67;;;7.30;99.90;;;;;;4154518;28;20508;-81
2021/11/21 05:17:01;;;;;;;28.03;13.57;;;7.30;99.90;;;;;;4147292;28;20944;-81
2021/11/21 05:19:04;;;;;;;25.97;12.80;;;7.30;99.90;;;;;;4147648;28;20452;-80
2021/11/21 05:21:07;;;;;;;25.67;13.53;;;7.30;99.90;;;;;;4159727;28;20932;-81
2021/11/21 05:23:09;;;;;;;25.50;12.77;;;7.20;99.90;;;;;;4157348;28;21017;-81
2021/11/21 05:25:11;;;;;;;24.50;12.43;;;7.30;99.90;;;;;;4143585;28;20686;-83
2021/11/21 05:27:13;;;;;;;25.70;12.87;;;7.30;99.90;;;;;;4166564;28;20545;-82
2021/11/21 05:29:15;;;;;;;24.63;12.67;;;7.30;99.90;;;;;;4155127;28;20889;-83
2021/11/21 05:31:17;;;;;;;28.40;14.10;;;7.30;99.90;;;;;;4140434;28;20529;-83
2021/11/21 05:33:19;;;;;;;26.63;13.57;;;7.30;99.90;;;;;;4137861;28;21001;-81
2021/11/21 05:35:21;;;;;;;27.53;13.93;;;7.30;99.90;;;;;;4151491;28;20473;-83
2021/11/21 05:37:25;;;;;;;27.60;13.43;;;7.30;99.90;;;;;;4149774;28;20947;-81
2021/11/21 05:39:27;;;;;;;26.00;13.33;;;7.30;99.90;;;;;;4148711;28;20552;-83
2021/11/21 05:41:29;;;;;;;25.63;13.17;;;7.30;99.90;;;;;;4144136;28;20500;-83
2021/11/21 05:43:30;;;;;;;25.17;12.90;;;7.30;99.90;;;;;;4149258;28;20536;-82
2021/11/21 05:45:32;;;;;;;26.57;13.83;;;7.30;99.90;;;;;;4139151;28;20457;-82
2021/11/21 05:47:34;;;;;;;25.67;13.23;;;7.30;99.90;;;;;;4157485;28;20801;-82
2021/11/21 05:49:36;;;;;;;25.70;12.77;;;7.30;99.90;;;;;;4134166;28;20561;-82
2021/11/21 05:51:38;;;;;;;24.17;12.97;;;7.30;99.90;;;;;;4143546;28;20588;-82
2021/11/21 05:53:42;;;;;;;29.33;13.90;;;7.30;99.90;;;;;;4150403;28;20547;-83
2021/11/21 05:55:44;;;;;;;26.57;13.50;;;7.30;99.90;;;;;;4148900;28;20484;-82
2021/11/21 05:57:46;;;;;;;27.27;13.50;;;7.30;99.90;;;;;;4149538;28;20544;-81
2021/11/21 05:59:48;;;;;;;27.50;13.40;;;7.30;99.90;;;;;;4148638;28;20493;-82
2021/11/21 06:01:50;;;;;;;23.97;12.83;;;7.30;99.90;;;;;;4149845;28;20544;-81
2021/11/21 06:03:54;;;;;;;24.73;12.87;;;7.30;99.90;;;;;;4165470;28;20488;-82
2021/11/21 06:05:56;;;;;;;24.47;12.90;;;7.30;99.90;;;;;;4141095;28;20573;-81
2021/11/21 06:07:58;;;;;;;24.37;13.10;;;7.30;99.90;;;;;;4143543;28;20502;-81
2021/11/21 06:10:03;;;;;;;26.17;13.07;;;7.30;99.90;;;;;;4150462;28;20518;-81
2021/11/21 06:12:06;;;;;;;31.57;15.03;;;7.30;99.90;;;;;;4146411;28;20487;-79
2021/11/21 06:14:08;;;;;;;26.97;13.57;;;7.30;99.90;;;;;;4143154;28;20473;-81
2021/11/21 06:16:10;;;;;;;26.83;13.27;;;7.30;99.90;;;;;;4149827;28;20850;-82
2021/11/21 06:18:12;;;;;;;26.67;12.70;;;7.30;99.90;;;;;;4148193;28;20464;-82
2021/11/21 06:20:14;;;;;;;25.90;13.33;;;7.30;99.90;;;;;;4148102;28;20522;-82
2021/11/21 06:22:17;;;;;;;28.10;14.07;;;7.40;99.90;;;;;;4148119;28;20516;-82
2021/11/21 06:24:20;;;;;;;26.47;13.10;;;7.30;99.90;;;;;;4141326;28;20509;-80
2021/11/21 06:26:23;;;;;;;23.80;11.77;;;7.30;99.90;;;;;;4145562;28;20862;-81
2021/11/21 06:28:25;;;;;;;24.17;12.53;;;7.30;99.90;;;;;;4143153;28;20444;-82
2021/11/21 06:30:27;;;;;;;25.80;12.90;;;7.30;99.90;;;;;;4144491;28;20568;-82
2021/11/21 06:32:29;;;;;;;25.17;13.23;;;7.40;99.90;;;;;;4147260;28;20485;-82
2021/11/21 06:34:31;;;;;;;25.77;12.83;;;7.30;99.90;;;;;;4143925;28;20513;-81
2021/11/21 06:36:33;;;;;;;26.10;13.53;;;7.30;99.90;;;;;;4145232;28;20541;-82
2021/11/21 06:38:35;;;;;;;29.37;13.70;;;7.30;99.90;;;;;;4148949;28;20548;-82
2021/11/21 06:40:37;;;;;;;27.60;13.40;;;7.30;99.90;;;;;;4142110;28;20554;-82
2021/11/21 06:42:42;;;;;;;26.53;12.73;;;7.30;99.90;;;;;;4144971;28;20551;-81
2021/11/21 06:44:44;;;;;;;23.60;12.67;;;7.30;99.90;;;;;;4146758;28;20463;-81
2021/11/21 06:46:46;;;;;;;28.40;12.33;;;7.20;99.90;;;;;;4150834;28;20539;-82
2021/11/21 06:48:49;;;;;;;24.27;12.70;;;7.30;99.90;;;;;;4150766;28;20448;-80
2021/11/21 06:50:53;;;;;;;29.50;13.90;;;7.30;99.90;;;;;;4150677;28;20560;-81
2021/11/21 06:52:55;;;;;;;24.07;11.27;;;7.30;99.90;;;;;;4151054;28;20497;-81
2021/11/21 06:54:57;;;;;;;23.73;12.23;;;7.30;99.90;;;;;;4151966;28;20829;-82
2021/11/21 06:57:00;;;;;;;26.37;12.67;;;7.30;99.90;;;;;;4148575;28;20561;-82
2021/11/21 06:59:03;;;;;;;23.67;11.67;;;7.30;99.90;;;;;;4150439;28;20462;-82
2021/11/21 07:01:05;;;;;;;26.47;12.83;;;7.20;99.90;;;;;;4151020;28;20523;-82
2021/11/21 07:03:10;;;;;;;27.43;12.70;;;7.30;99.90;;;;;;4150597;28;20469;-81
2021/11/21 07:05:12;;;;;;;26.20;12.50;;;7.30;99.90;;;;;;4150050;28;20448;-82
2021/11/21 07:07:15;;;;;;;23.83;11.80;;;7.30;99.90;;;;;;4144106;28;20551;-81
2021/11/21 07:09:19;;;;;;;26.23;12.93;;;7.30;99.90;;;;;;4157231;28;20807;-81
2021/11/21 07:11:21;;;;;;;27.60;13.10;;;7.30;99.90;;;;;;4153354;28;21377;-80
2021/11/21 07:13:23;;;;;;;26.33;13.57;;;7.30;99.90;;;;;;4150952;28;20470;-81
2021/11/21 07:15:26;;;;;;;25.13;12.10;;;7.30;99.90;;;;;;4154295;28;20561;-81
2021/11/21 07:17:28;;;;;;;30.23;13.30;;;7.30;99.90;;;;;;4149784;28;20449;-83
2021/11/21 07:19:30;;;;;;;24.17;11.87;;;7.30;99.90;;;;;;4154813;28;20520;-82
2021/11/21 07:21:32;;;;;;;26.87;12.17;;;7.40;99.90;;;;;;4157197;28;21033;-82
2021/11/21 07:23:34;;;;;;;29.13;13.13;;;7.30;99.90;;;;;;4156519;28;20465;-82
2021/11/21 07:25:36;;;;;;;29.07;12.53;;;7.30;99.90;;;;;;4160865;28;20932;-82
2021/11/21 07:27:38;;;;;;;29.13;13.27;;;7.30;99.90;;;;;;4153976;28;20476;-82
2021/11/21 07:29:40;;;;;;;25.37;13.30;;;7.30;99.90;;;;;;4149885;28;21010;-79
2021/11/21 07:31:44;;;;;;;25.53;12.33;;;7.30;99.90;;;;;;4146374;28;20580;-79
2021/11/21 07:33:46;;;;;;;24.10;11.97;;;7.20;99.90;;;;;;4135006;28;20545;-79
2021/11/21 07:35:47;;;;;;;26.73;13.23;;;7.30;99.90;;;;;;4132971;28;20796;-82
2021/11/21 07:37:50;;;;;;;27.63;12.70;;;7.40;99.90;;;;;;4140377;28;20477;-83
2021/11/21 07:39:52;;;;;;;25.30;12.17;;;7.30;99.90;;;;;;4154261;28;20460;-82
2021/11/21 07:41:55;;;;;;;25.97;12.13;;;7.30;99.90;;;;;;4146062;28;20466;-82
2021/11/21 07:43:57;;;;;;;27.60;13.03;;;7.30;99.90;;;;;;4142459;28;20500;-82
2021/11/21 07:46:00;;;;;;;24.00;11.70;;;7.30;99.90;;;;;;4153644;28;20663;-82
2021/11/21 07:48:04;;;;;;;26.30;12.33;;;7.30;99.90;;;;;;4164154;28;20449;-82
2021/11/21 07:50:07;;;;;;;25.60;12.83;;;7.30;99.90;;;;;;4148650;28;20501;-82
2021/11/21 07:52:09;;;;;;;30.57;13.97;;;7.20;99.90;;;;;;4141214;28;20489;-82
2021/11/21 07:54:11;;;;;;;29.17;13.20;;;7.20;99.90;;;;;;4159783;28;20578;-82
2021/11/21 07:56:13;;;;;;;27.43;12.17;;;7.20;99.90;;;;;;4165543;28;20529;-79
2021/11/21 07:58:15;;;;;;;29.63;13.10;;;7.20;99.90;;;;;;4152543;28;20476;-82
2021/11/21 08:00:17;;;;;;;28.83;13.50;;;7.10;99.90;;;;;;4149025;28;20523;-80
2021/11/21 08:02:19;;;;;;;29.10;12.90;;;7.10;99.90;;;;;;4148009;28;20543;-81
2021/11/21 08:04:23;;;;;;;29.73;12.77;;;7.10;99.90;;;;;;4148567;28;20458;-81
2021/11/21 08:06:24;;;;;;;25.73;12.33;;;7.10;99.90;;;;;;4153445;28;20532;-82
2021/11/21 08:08:26;;;;;;;26.83;12.47;;;7.00;99.90;;;;;;4148316;28;20535;-82
2021/11/21 08:10:28;;;;;;;27.57;13.57;;;7.10;99.90;;;;;;4147511;28;20920;-82
2021/11/21 08:12:31;;;;;;;25.90;12.57;;;7.10;99.90;;;;;;4152027;28;20516;-82
2021/11/21 08:14:33;;;;;;;29.37;13.60;;;7.10;99.90;;;;;;4148332;28;20547;-82
2021/11/21 08:16:35;;;;;;;29.40;12.80;;;7.10;99.90;;;;;;4152258;28;20473;-81
2021/11/21 08:18:37;;;;;;;28.30;13.60;;;7.10;99.90;;;;;;4141068;28;20563;-82
2021/11/21 08:20:40;;;;;;;25.40;12.27;;;7.10;99.90;;;;;;4174208;22;20550;-80
2021/11/21 08:22:42;;;;;;;30.53;13.67;;;7.10;99.90;;;;;;4161381;28;20455;-82
2021/11/21 08:24:45;;;;;;;27.73;13.50;;;7.10;99.90;;;;;;4164366;28;20548;-78
2021/11/21 08:26:47;;;;;;;27.30;13.13;;;7.10;99.90;;;;;;4160926;28;20560;-75
2021/11/21 08:28:49;;;;;;;28.80;13.53;;;7.10;99.90;;;;;;4160602;28;20809;-76
2021/11/21 08:30:51;;;;;;;27.77;11.80;;;7.10;99.90;;;;;;4156331;28;20479;-77
2021/11/21 08:32:53;;;;;;;27.27;12.57;;;7.10;99.90;;;;;;4147644;28;20525;-77
2021/11/21 08:34:55;;;;;;;25.77;12.40;;;7.10;99.90;;;;;;4146466;28;21006;-79
2021/11/21 08:36:58;;;;;;;26.17;12.07;;;7.10;99.90;;;;;;4150822;28;20456;-81
2021/11/21 08:39:00;;;;;;;26.33;12.57;;;7.10;99.90;;;;;;4154328;28;20470;-78
2021/11/21 08:41:03;;;;;;;24.83;12.80;;;7.10;99.90;;;;;;4153183;28;20511;-77
2021/11/21 08:43:05;;;;;;;25.70;12.33;;;7.10;99.90;;;;;;4141762;28;20469;-79
2021/11/21 08:45:08;;;;;;;28.93;13.23;;;7.10;99.90;;;;;;4144718;28;20471;-78
2021/11/21 08:47:10;;;;;;;27.00;12.33;;;7.10;99.90;;;;;;4143808;28;20891;-76
2021/11/21 08:49:13;;;;;;;25.63;12.10;;;7.10;99.90;;;;;;4144626;28;20509;-76
2021/11/21 08:51:15;;;;;;;29.87;13.30;;;7.10;99.90;;;;;;4149619;28;20496;-80
2021/11/21 08:53:21;;;;;;;28.60;12.97;;;7.10;99.90;;;;;;4149323;28;20492;-78
2021/11/21 08:55:23;;;;;;;29.07;13.30;;;7.20;99.90;;;;;;4148861;28;20563;-78
2021/11/21 08:57:25;;;;;;;28.00;12.97;;;7.20;99.90;;;;;;4155352;28;20558;-78
2021/11/21 08:59:27;;;;;;;24.50;11.67;;;7.20;99.90;;;;;;4144839;28;20569;-78
2021/11/21 09:01:29;;;;;;;25.30;12.43;;;7.20;99.90;;;;;;4144467;28;20549;-79
2021/11/21 09:03:32;;;;;;;27.60;11.63;;;7.20;99.90;;;;;;4148538;28;20542;-77
2021/11/21 09:05:34;;;;;;;29.43;12.77;;;7.40;99.90;;;;;;4142582;28;20476;-78
2021/11/21 09:07:37;;;;;;;30.43;13.27;;;7.30;99.90;;;;;;4151623;28;21057;-77
2021/11/21 09:09:40;;;;;;;25.83;12.57;;;7.20;99.90;;;;;;4149316;28;20446;-79
2021/11/21 09:11:43;;;;;;;28.27;12.70;;;7.20;99.90;;;;;;4153242;28;20559;-76
2021/11/21 09:13:44;;;;;;;26.93;12.63;;;7.20;99.90;;;;;;4143602;28;20496;-77
2021/11/21 09:15:46;;;;;;;24.50;12.43;;;7.30;99.90;;;;;;4149683;28;21061;-79
2021/11/21 09:17:51;;;;;;;27.77;13.33;;;7.30;99.90;;;;;;4150780;28;20552;-78
2021/11/21 09:19:54;;;;;;;28.07;13.20;;;7.30;99.90;;;;;;4149443;28;20473;-79
2021/11/21 09:21:56;;;;;;;27.70;12.73;;;7.30;99.90;;;;;;4155276;28;20492;-82
2021/11/21 09:23:58;;;;;;;28.23;13.10;;;7.30;99.90;;;;;;4137423;28;20516;-82
2021/11/21 09:26:01;;;;;;;26.47;12.30;;;7.30;99.90;;;;;;4138453;28;20906;-82
2021/11/21 09:28:03;;;;;;;27.20;12.63;;;7.30;99.90;;;;;;4147815;28;20496;-81
2021/11/21 09:30:08;;;;;;;26.60;12.43;;;7.30;99.90;;;;;;4146664;28;20547;-81
2021/11/21 09:32:10;;;;;;;24.43;11.70;;;7.40;99.90;;;;;;4147933;28;20485;-81
2021/11/21 09:34:13;;;;;;;28.43;12.07;;;7.40;99.90;;;;;;4150141;28;20453;-81
2021/11/21 09:36:18;;;;;;;25.60;12.33;;;7.40;99.90;;;;;;4149598;28;20544;-81
2021/11/21 09:38:20;;;;;;;23.17;11.90;;;7.40;99.90;;;;;;4148428;28;20461;-79
2021/11/21 09:40:22;;;;;;;26.90;11.73;;;7.40;99.90;;;;;;4140396;28;21181;-81
2021/11/21 09:42:26;;;;;;;25.20;12.47;;;7.40;99.90;;;;;;4139617;28;20562;-81
2021/11/21 09:44:28;;;;;;;26.57;12.60;;;7.40;99.90;;;;;;4150866;28;20500;-80
2021/11/21 09:46:30;;;;;;;22.57;10.73;;;7.40;99.90;;;;;;4149911;28;20849;-80
2021/11/21 09:48:33;;;;;;;24.43;11.83;;;7.50;99.90;;;;;;4147556;28;20492;-81
2021/11/21 09:50:38;;;;;;;24.93;11.93;;;7.50;99.90;;;;;;4138049;28;20481;-79
2021/11/21 09:52:40;;;;;;;22.63;10.90;;;7.50;99.90;;;;;;4151591;28;20560;-80
2021/11/21 09:54:42;;;;;;;23.87;11.73;;;7.60;99.90;;;;;;4150581;28;20517;-81
2021/11/21 09:56:45;;;;;;;21.57;10.50;;;7.60;99.90;;;;;;4144000;28;21060;-80
2021/11/21 09:58:48;;;;;;;22.23;10.60;;;7.70;99.90;;;;;;4143603;28;21046;-81
2021/11/21 10:00:50;;;;;;;21.37;10.47;;;7.70;99.90;;;;;;4147975;28;20485;-81
2021/11/21 10:02:59;;;;;;;22.00;10.67;;;7.80;99.90;;;;;;4153333;28;20549;-81
2021/11/21 10:05:03;;;;;;;24.17;11.17;;;7.90;99.90;;;;;;4157181;28;20488;-80
2021/11/21 10:07:20;;;;;;;20.63;10.80;;;7.90;99.90;;;;;;4155700;28;20530;-82
2021/11/21 10:09:22;;;;;;;22.10;11.20;;;8.00;99.90;;;;;;4147867;28;20466;-80
2021/11/21 10:11:24;;;;;;;22.10;10.97;;;8.00;99.90;;;;;;4149439;28;20477;-77
2021/11/21 10:13:33;;;;;;;24.60;11.93;;;8.00;99.90;;;;;;4154948;28;20515;-77
2021/11/21 10:15:36;;;;;;;22.90;11.47;;;8.10;99.90;;;;;;4154851;28;20500;-81
2021/11/21 10:17:40;;;;;;;21.17;9.83;;;8.10;99.90;;;;;;4154489;28;20501;-77
2021/11/21 10:20:07;;;;;;;23.90;11.13;;;8.10;99.90;;;;;;4159462;28;20545;-81
2021/11/21 10:22:09;;;;;;;25.00;11.53;;;8.20;99.90;;;;;;4155293;28;20455;-80
2021/11/21 10:24:20;;;;;;;24.37;11.20;;;8.10;99.90;;;;;;4157379;28;20468;-78
2021/11/21 10:26:24;;;;;;;21.47;10.60;;;8.20;99.90;;;;;;4152383;28;20466;-77
2021/11/21 10:28:31;;;;;;;18.97;9.70;;;8.20;99.90;;;;;;4152004;28;20492;-78